createdAt,value
2023-05-13T00:01:27.377Z,102259.78
2023-05-13T00:06:30.223Z,102259.03
2023-05-13T00:11:33.109Z,102248.56
2023-05-13T00:16:37.766Z,102246.94
2023-05-13T00:21:41.156Z,102243.63
2023-05-13T00:26:44.052Z,102239.34
2023-05-13T00:31:48.299Z,102238.59
2023-05-13T00:36:51.775Z,102237.88
2023-05-13T00:41:54.575Z,102239.69
2023-05-13T00:46:58.914Z,102240.69
2023-05-13T00:52:02.014Z,102248.78
2023-05-13T00:57:05.177Z,102250.59
2023-05-13T01:02:14.751Z,102247.19
2023-05-13T01:07:25.489Z,102244.56
2023-05-13T01:12:32.362Z,102234.00
2023-05-13T01:17:39.506Z,102233.09
2023-05-13T01:22:43.640Z,102233.19
2023-05-13T01:27:46.858Z,102235.00
2023-05-13T01:32:53.010Z,102236.03
2023-05-13T01:37:58.280Z,102228.31
2023-05-13T01:43:01.668Z,102238.06
2023-05-13T01:48:05.473Z,102242.56
2023-05-13T01:53:18.892Z,102239.19
2023-05-13T01:58:23.318Z,102248.00
2023-05-13T02:03:26.512Z,102246.28
2023-05-13T02:08:31.058Z,102250.69
2023-05-13T02:13:33.945Z,102244.66
2023-05-13T02:18:36.824Z,102251.75
2023-05-13T02:23:40.977Z,102247.44
2023-05-13T02:28:43.791Z,102244.91
2023-05-13T02:33:49.921Z,102242.41
2023-05-13T02:38:54.796Z,102240.78
2023-05-13T02:43:57.710Z,102250.44
2023-05-13T02:49:01.124Z,102245.25
2023-05-13T02:54:08.336Z,102253.16
2023-05-13T02:59:11.254Z,102255.78
2023-05-13T03:04:14.565Z,102257.56
2023-05-13T03:09:18.806Z,102259.38
2023-05-13T03:14:23.047Z,102256.75
2023-05-13T03:19:25.883Z,102252.41
2023-05-13T03:24:30.180Z,102249.81
2023-05-13T03:29:33.253Z,102248.06
2023-05-13T03:34:37.843Z,102252.44
2023-05-13T03:39:42.714Z,102252.44
2023-05-13T03:44:45.927Z,102251.59
2023-05-13T03:49:48.971Z,102259.44
2023-05-13T03:54:53.780Z,102262.91
2023-05-13T03:59:56.616Z,102270.78
2023-05-13T04:04:59.511Z,102268.19
2023-05-13T04:10:03.751Z,102271.66
2023-05-13T04:15:07.475Z,102266.44
2023-05-13T04:20:10.922Z,102264.66
2023-05-13T04:25:15.240Z,102262.88
2023-05-13T04:30:18.360Z,102265.47
2023-05-13T04:35:22.696Z,102268.06
2023-05-13T04:40:30.981Z,102274.13
2023-05-13T04:45:38.611Z,102272.28
2023-05-13T04:50:46.483Z,102281.00
2023-05-13T04:55:52.481Z,102280.09
2023-05-13T05:00:55.430Z,102288.72
2023-05-13T05:05:58.485Z,102286.03
2023-05-13T05:11:02.958Z,102292.97
2023-05-13T05:16:08.740Z,102292.91
2023-05-13T05:21:11.958Z,102299.84
2023-05-13T05:26:16.930Z,102289.19
2023-05-13T05:31:19.891Z,102290.78
2023-05-13T05:36:22.844Z,102297.66
2023-05-13T05:41:28.154Z,102287.81
2023-05-13T05:46:31.500Z,102297.19
2023-05-13T05:51:35.394Z,102299.66
2023-05-13T05:56:41.331Z,102303.88
2023-05-13T06:01:44.256Z,102287.84
2023-05-13T06:06:47.132Z,102286.56
2023-05-13T06:11:51.681Z,102284.50
2023-05-13T06:16:55.882Z,102278.97
2023-05-13T06:21:58.880Z,102274.09
2023-05-13T06:27:03.105Z,102277.16
2023-05-13T06:32:06.708Z,102267.84
2023-05-13T06:37:09.568Z,102264.97
2023-05-13T06:42:14.346Z,102264.59
2023-05-13T06:47:23.715Z,102253.47
2023-05-13T06:52:27.059Z,102254.59
2023-05-13T06:57:41.947Z,102263.25
2023-05-13T07:02:46.128Z,102261.47
2023-05-13T07:07:53.472Z,102264.75
2023-05-13T07:12:57.739Z,102255.28
2023-05-13T07:18:00.732Z,102258.03
2023-05-13T07:23:03.620Z,102266.69
2023-05-13T07:28:08.187Z,102263.63
2023-05-13T07:33:11.138Z,102267.09
2023-05-13T07:38:14.180Z,102252.38
2023-05-13T07:43:23.758Z,102257.81
2023-05-13T07:48:28.191Z,102253.53
2023-05-13T07:53:30.981Z,102237.75
2023-05-13T07:58:35.093Z,102250.25
2023-05-13T08:03:38.128Z,102233.53
2023-05-13T08:08:41.124Z,102245.75
2023-05-13T08:13:45.415Z,102250.34
2023-05-13T08:18:48.642Z,102253.38
2023-05-13T08:23:51.916Z,102242.84
2023-05-13T08:28:57.246Z,102244.44
2023-05-13T08:34:25.296Z,102244.41
2023-05-13T08:39:28.149Z,102240.97
2023-05-13T08:44:33.709Z,102237.47
2023-05-13T08:49:36.484Z,102247.63
2023-05-13T08:54:39.891Z,102243.66
2023-05-13T08:59:44.052Z,102241.34
2023-05-13T09:04:47.970Z,102245.91
2023-05-13T09:09:51.300Z,102250.47
2023-05-13T09:14:55.712Z,102244.50
2023-05-13T09:19:58.593Z,102247.72
2023-05-13T09:25:04.112Z,102249.44
2023-05-13T09:30:09.599Z,102255.28
2023-05-13T09:35:17.594Z,102248.22
2023-05-13T09:40:20.843Z,102257.09
2023-05-13T09:45:26.611Z,102247.00
2023-05-13T09:50:29.571Z,102259.25
2023-05-13T09:55:32.393Z,102248.59
2023-05-13T10:00:38.994Z,102245.47
2023-05-13T10:05:42.736Z,102243.41
2023-05-13T10:10:46.629Z,102250.31
2023-05-13T10:15:52.133Z,102252.63
2023-05-13T10:20:56.041Z,102245.28
2023-05-13T10:26:00.183Z,102250.81
2023-05-13T10:31:04.409Z,102238.50
2023-05-13T10:36:21.247Z,102231.84
2023-05-13T10:41:41.629Z,102229.81
2023-05-13T10:46:48.783Z,102229.06
2023-05-13T10:51:52.360Z,102225.84
2023-05-13T10:56:58.432Z,102230.66
2023-05-13T11:02:04.557Z,102218.38
2023-05-13T11:07:16.634Z,102219.66
2023-05-13T11:12:19.516Z,102226.78
2023-05-13T11:17:23.716Z,102218.13
2023-05-13T11:22:27.666Z,102212.22
2023-05-13T11:27:34.133Z,102208.88
2023-05-13T11:32:56.660Z,102205.00
2023-05-13T11:38:01.058Z,102210.69
2023-05-13T11:43:04.938Z,102200.94
2023-05-13T11:48:21.061Z,102203.44
2023-05-13T11:53:24.020Z,102202.47
2023-05-13T11:58:26.986Z,102197.09
2023-05-13T12:03:31.258Z,102188.38
2023-05-13T12:08:34.114Z,102191.34
2023-05-13T12:13:37.196Z,102197.50
2023-05-13T12:18:41.719Z,102187.78
2023-05-13T12:23:44.728Z,102177.19
2023-05-13T12:28:47.729Z,102184.97
2023-05-13T12:33:52.062Z,102182.03
2023-05-13T12:38:58.200Z,102179.91
2023-05-13T12:44:03.895Z,102193.84
2023-05-13T12:49:12.040Z,102181.81
2023-05-13T12:54:14.865Z,102187.78
2023-05-13T12:59:19.174Z,102178.75
2023-05-13T13:04:23.462Z,102186.97
2023-05-13T13:09:26.633Z,102174.97
2023-05-13T13:14:29.768Z,102179.38
2023-05-13T13:19:33.999Z,102178.22
2023-05-13T13:24:36.992Z,102178.22
2023-05-13T13:29:40.284Z,102179.19
2023-05-13T13:34:44.471Z,102184.22
2023-05-13T13:39:47.332Z,102173.56
2023-05-13T13:44:50.226Z,102165.91
2023-05-13T13:49:54.395Z,102163.34
2023-05-13T13:54:57.269Z,102162.38
2023-05-13T14:00:00.230Z,102155.31
2023-05-13T14:05:04.788Z,102146.88
2023-05-13T14:10:08.870Z,102140.44
2023-05-13T14:15:12.673Z,102146.53
2023-05-13T14:20:16.937Z,102144.13
2023-05-13T14:25:19.726Z,102143.34
2023-05-13T14:30:22.977Z,102140.69
2023-05-13T14:35:27.486Z,102142.19
2023-05-13T14:40:30.670Z,102139.63
2023-05-13T14:45:33.663Z,102140.69
2023-05-13T14:50:39.412Z,102135.16
2023-05-13T14:55:44.264Z,102138.53
2023-05-13T15:00:47.317Z,102145.09
2023-05-13T15:05:51.801Z,102139.94
2023-05-13T15:10:54.641Z,102129.06
2023-05-13T15:15:57.544Z,102131.63
2023-05-13T15:21:01.772Z,102132.59
2023-05-13T15:26:04.759Z,102125.81
2023-05-13T15:31:07.734Z,102126.28
2023-05-13T15:36:11.935Z,102117.09
2023-05-13T15:41:14.730Z,102122.41
2023-05-13T15:46:17.644Z,102117.25
2023-05-13T15:51:21.971Z,102120.56
2023-05-13T15:56:25.725Z,102113.41
2023-05-13T16:01:28.831Z,102110.56
2023-05-13T16:06:35.264Z,102114.09
2023-05-13T16:11:38.969Z,102112.38
2023-05-13T16:16:42.077Z,102110.25
2023-05-13T16:21:46.418Z,102108.19
2023-05-13T16:26:49.371Z,102104.28
2023-05-13T16:31:52.372Z,102110.75
2023-05-13T16:36:59.104Z,102109.53
2023-05-13T16:42:02.171Z,102104.00
2023-05-13T16:47:08.592Z,102098.75
2023-05-13T16:52:12.981Z,102107.94
2023-05-13T16:57:16.199Z,102109.63
2023-05-13T17:02:19.184Z,102103.50
2023-05-13T17:07:23.452Z,102110.69
2023-05-13T17:12:27.227Z,102106.47
2023-05-13T17:17:30.368Z,102113.56
2023-05-13T17:22:34.911Z,102116.38
2023-05-13T17:27:37.777Z,102110.91
2023-05-13T17:32:40.667Z,102106.94
2023-05-13T17:37:44.922Z,102121.31
2023-05-13T17:42:47.816Z,102115.00
2023-05-13T17:47:50.706Z,102125.38
2023-05-13T17:52:55.120Z,102118.31
2023-05-13T17:57:59.819Z,102123.00
2023-05-13T18:03:02.750Z,102128.06
2023-05-13T18:08:07.136Z,102124.81
2023-05-13T18:13:10.044Z,102124.91
2023-05-13T18:18:13.520Z,102130.09
2023-05-13T18:23:17.980Z,102138.06
2023-05-13T18:28:20.947Z,102133.41
2023-05-13T18:33:23.780Z,102135.56
2023-05-13T18:38:28.002Z,102132.94
2023-05-13T18:43:31.016Z,102138.00
2023-05-13T18:48:33.906Z,102147.78
2023-05-13T18:53:38.119Z,102162.44
2023-05-13T18:58:41.080Z,102154.34
2023-05-13T19:03:44.208Z,102153.19
2023-05-13T19:08:48.537Z,102165.28
2023-05-13T19:13:51.333Z,102163.97
2023-05-13T19:18:54.412Z,102168.00
2023-05-13T19:23:59.557Z,102158.66
2023-05-13T19:29:02.625Z,102172.28
2023-05-13T19:34:07.553Z,102171.63
2023-05-13T19:39:11.969Z,102178.19
2023-05-13T19:44:14.859Z,102187.16
2023-05-13T19:49:17.744Z,102192.84
2023-05-13T19:54:22.205Z,102186.13
2023-05-13T19:59:25.226Z,102181.88
2023-05-13T20:04:28.649Z,102189.16
2023-05-13T20:09:32.896Z,102191.19
2023-05-13T20:14:45.881Z,102194.13
2023-05-13T20:19:49.816Z,102187.34
2023-05-13T20:24:54.437Z,102200.88
2023-05-13T20:29:57.282Z,102200.16
2023-05-13T20:35:00.159Z,102202.13
2023-05-13T20:40:05.309Z,102199.69
2023-05-13T20:45:09.247Z,102199.06
2023-05-13T20:50:13.038Z,102200.09
2023-05-13T20:55:17.818Z,102203.78
2023-05-13T21:00:21.421Z,102204.72
2023-05-13T21:05:24.560Z,102207.44
2023-05-13T21:10:29.019Z,102213.66
2023-05-13T21:15:31.900Z,102209.38
2023-05-13T21:20:34.791Z,102214.63
2023-05-13T21:25:39.037Z,102217.44
2023-05-13T21:30:42.878Z,102212.25
2023-05-13T21:35:45.615Z,102207.91
2023-05-13T21:40:49.940Z,102206.28
2023-05-13T21:45:52.771Z,102214.19
2023-05-13T21:50:55.653Z,102216.97
2023-05-13T21:56:00.218Z,102215.34
2023-05-13T22:01:03.122Z,102211.00
2023-05-13T22:06:06.153Z,102205.06
2023-05-13T22:11:11.311Z,102204.19
2023-05-13T22:16:14.511Z,102201.69
2023-05-13T22:21:17.524Z,102202.66
2023-05-13T22:26:21.925Z,102207.03
2023-05-13T22:31:25.684Z,102207.09
2023-05-13T22:36:28.614Z,102200.16
2023-05-13T22:41:32.841Z,102198.47
2023-05-13T22:46:35.812Z,102198.63
2023-05-13T22:51:38.720Z,102190.81
2023-05-13T22:56:42.923Z,102186.56
2023-05-13T23:01:45.769Z,102182.28
2023-05-13T23:06:48.649Z,102176.38
2023-05-13T23:11:52.824Z,102169.41
2023-05-13T23:16:55.591Z,102171.25
2023-05-13T23:21:58.524Z,102172.16
2023-05-13T23:27:02.757Z,102166.16
2023-05-13T23:32:07.170Z,102164.59
2023-05-13T23:37:10.145Z,102163.84
2023-05-13T23:42:14.424Z,102161.28
2023-05-13T23:47:17.168Z,102161.41
2023-05-13T23:52:19.969Z,102160.56
2023-05-13T23:57:24.256Z,102144.06
